sensor_id;sensor_type;location;lat;lon;timestamp;P1;durP1;ratioP1;P2;durP2;ratioP2
36457;SDS011;22480;50.546;12.292;2023-11-21T00:00:31;8.18;;;3.30;;
36457;SDS011;22480;50.546;12.292;2023-11-21T00:02:57;6.55;;;3.03;;
36457;SDS011;22480;50.546;12.292;2023-11-21T00:05:22;6.45;;;3.55;;
36457;SDS011;22480;50.546;12.292;2023-11-21T00:07:48;6.45;;;3.60;;
36457;SDS011;22480;50.546;12.292;2023-11-21T00:10:14;8.15;;;4.25;;
36457;SDS011;22480;50.546;12.292;2023-11-21T00:12:41;9.00;;;4.45;;
36457;SDS011;22480;50.546;12.292;2023-11-21T00:15:07;6.13;;;3.78;;
36457;SDS011;22480;50.546;12.292;2023-11-21T00:17:37;9.50;;;4.03;;
36457;SDS011;22480;50.546;12.292;2023-11-21T00:20:03;5.97;;;3.67;;
36457;SDS011;22480;50.546;12.292;2023-11-21T00:22:34;7.90;;;4.15;;
36457;SDS011;22480;50.546;12.292;2023-11-21T00:25:01;10.18;;;4.80;;
36457;SDS011;22480;50.546;12.292;2023-11-21T00:27:29;8.27;;;4.30;;
36457;SDS011;22480;50.546;12.292;2023-11-21T00:29:55;13.30;;;5.35;;
36457;SDS011;22480;50.546;12.292;2023-11-21T00:32:20;7.40;;;4.85;;
36457;SDS011;22480;50.546;12.292;2023-11-21T00:34:46;8.57;;;4.47;;
36457;SDS011;22480;50.546;12.292;2023-11-21T00:37:12;5.95;;;4.03;;
36457;SDS011;22480;50.546;12.292;2023-11-21T00:39:38;8.77;;;5.28;;
36457;SDS011;22480;50.546;12.292;2023-11-21T00:42:05;10.57;;;5.40;;
36457;SDS011;22480;50.546;12.292;2023-11-21T00:44:31;12.23;;;5.50;;
36457;SDS011;22480;50.546;12.292;2023-11-21T00:46:59;9.25;;;5.88;;
36457;SDS011;22480;50.546;12.292;2023-11-21T00:49:25;8.07;;;5.40;;
36457;SDS011;22480;50.546;12.292;2023-11-21T00:51:51;8.48;;;5.85;;
36457;SDS011;22480;50.546;12.292;2023-11-21T00:54:16;8.52;;;4.72;;
36457;SDS011;22480;50.546;12.292;2023-11-21T00:56:42;10.85;;;5.95;;
36457;SDS011;22480;50.546;12.292;2023-11-21T00:59:08;10.68;;;5.40;;
36457;SDS011;22480;50.546;12.292;2023-11-21T01:01:35;12.30;;;5.82;;
36457;SDS011;22480;50.546;12.292;2023-11-21T01:04:04;11.13;;;4.72;;
36457;SDS011;22480;50.546;12.292;2023-11-21T01:06:33;8.32;;;5.18;;
36457;SDS011;22480;50.546;12.292;2023-11-21T01:08:58;8.80;;;5.53;;
36457;SDS011;22480;50.546;12.292;2023-11-21T01:11:24;9.63;;;5.43;;
36457;SDS011;22480;50.546;12.292;2023-11-21T01:13:51;9.38;;;5.43;;
36457;SDS011;22480;50.546;12.292;2023-11-21T01:16:18;13.55;;;5.32;;
36457;SDS011;22480;50.546;12.292;2023-11-21T01:18:44;7.05;;;4.57;;
36457;SDS011;22480;50.546;12.292;2023-11-21T01:21:11;7.95;;;4.63;;
36457;SDS011;22480;50.546;12.292;2023-11-21T01:23:37;12.88;;;4.93;;
36457;SDS011;22480;50.546;12.292;2023-11-21T01:26:03;6.43;;;4.68;;
36457;SDS011;22480;50.546;12.292;2023-11-21T01:28:29;6.78;;;4.35;;
36457;SDS011;22480;50.546;12.292;2023-11-21T01:30:54;7.82;;;4.32;;
36457;SDS011;22480;50.546;12.292;2023-11-21T01:33:21;7.72;;;4.05;;
36457;SDS011;22480;50.546;12.292;2023-11-21T01:35:51;8.10;;;4.60;;
36457;SDS011;22480;50.546;12.292;2023-11-21T01:38:20;8.05;;;5.13;;
36457;SDS011;22480;50.546;12.292;2023-11-21T01:40:46;10.15;;;5.00;;
36457;SDS011;22480;50.546;12.292;2023-11-21T01:43:12;7.70;;;4.78;;
36457;SDS011;22480;50.546;12.292;2023-11-21T01:45:37;11.80;;;5.32;;
36457;SDS011;22480;50.546;12.292;2023-11-21T01:48:04;12.07;;;5.88;;
36457;SDS011;22480;50.546;12.292;2023-11-21T01:50:31;10.90;;;5.20;;
36457;SDS011;22480;50.546;12.292;2023-11-21T01:52:58;6.28;;;4.82;;
36457;SDS011;22480;50.546;12.292;2023-11-21T01:55:25;10.50;;;5.40;;
36457;SDS011;22480;50.546;12.292;2023-11-21T01:57:53;11.13;;;5.43;;
36457;SDS011;22480;50.546;12.292;2023-11-21T02:00:19;12.15;;;5.75;;
36457;SDS011;22480;50.546;12.292;2023-11-21T02:02:45;10.27;;;6.10;;
36457;SDS011;22480;50.546;12.292;2023-11-21T02:05:13;10.05;;;5.43;;
36457;SDS011;22480;50.546;12.292;2023-11-21T02:07:40;9.05;;;5.75;;
36457;SDS011;22480;50.546;12.292;2023-11-21T02:10:13;9.82;;;5.78;;
36457;SDS011;22480;50.546;12.292;2023-11-21T02:12:43;9.88;;;5.60;;
36457;SDS011;22480;50.546;12.292;2023-11-21T02:15:13;11.02;;;5.47;;
36457;SDS011;22480;50.546;12.292;2023-11-21T02:17:48;11.88;;;5.55;;
36457;SDS011;22480;50.546;12.292;2023-11-21T02:20:19;9.90;;;4.90;;
36457;SDS011;22480;50.546;12.292;2023-11-21T02:22:55;8.40;;;5.80;;
36457;SDS011;22480;50.546;12.292;2023-11-21T02:25:25;12.90;;;5.60;;
36457;SDS011;22480;50.546;12.292;2023-11-21T02:27:53;11.25;;;6.25;;
36457;SDS011;22480;50.546;12.292;2023-11-21T02:30:20;15.60;;;6.78;;
36457;SDS011;22480;50.546;12.292;2023-11-21T02:32:47;11.82;;;5.65;;
36457;SDS011;22480;50.546;12.292;2023-11-21T02:35:14;12.43;;;6.68;;
36457;SDS011;22480;50.546;12.292;2023-11-21T02:37:41;11.38;;;5.70;;
36457;SDS011;22480;50.546;12.292;2023-11-21T02:40:10;12.65;;;6.65;;
36457;SDS011;22480;50.546;12.292;2023-11-21T02:42:43;12.05;;;6.10;;
36457;SDS011;22480;50.546;12.292;2023-11-21T02:45:09;11.73;;;6.93;;
36457;SDS011;22480;50.546;12.292;2023-11-21T02:47:38;9.25;;;5.93;;
36457;SDS011;22480;50.546;12.292;2023-11-21T02:50:04;8.98;;;5.63;;
36457;SDS011;22480;50.546;12.292;2023-11-21T02:52:33;11.80;;;7.50;;
36457;SDS011;22480;50.546;12.292;2023-11-21T02:55:00;9.68;;;5.97;;
36457;SDS011;22480;50.546;12.292;2023-11-21T02:57:26;10.70;;;6.53;;
36457;SDS011;22480;50.546;12.292;2023-11-21T02:59:52;10.07;;;6.18;;
36457;SDS011;22480;50.546;12.292;2023-11-21T03:02:18;11.15;;;5.22;;
36457;SDS011;22480;50.546;12.292;2023-11-21T03:04:43;11.88;;;5.35;;
36457;SDS011;22480;50.546;12.292;2023-11-21T03:07:09;10.65;;;5.43;;
36457;SDS011;22480;50.546;12.292;2023-11-21T03:09:35;11.60;;;4.82;;
36457;SDS011;22480;50.546;12.292;2023-11-21T03:12:01;11.10;;;6.10;;
36457;SDS011;22480;50.546;12.292;2023-11-21T03:14:27;12.48;;;5.90;;
36457;SDS011;22480;50.546;12.292;2023-11-21T03:16:52;7.90;;;5.30;;
36457;SDS011;22480;50.546;12.292;2023-11-21T03:19:18;9.90;;;5.80;;
36457;SDS011;22480;50.546;12.292;2023-11-21T03:21:44;11.57;;;5.78;;
36457;SDS011;22480;50.546;12.292;2023-11-21T03:24:10;11.00;;;6.15;;
36457;SDS011;22480;50.546;12.292;2023-11-21T03:26:36;10.75;;;5.95;;
36457;SDS011;22480;50.546;12.292;2023-11-21T03:29:03;9.63;;;6.50;;
36457;SDS011;22480;50.546;12.292;2023-11-21T03:31:30;14.88;;;6.82;;
36457;SDS011;22480;50.546;12.292;2023-11-21T03:33:56;13.60;;;6.93;;
36457;SDS011;22480;50.546;12.292;2023-11-21T03:36:22;12.40;;;7.00;;
36457;SDS011;22480;50.546;12.292;2023-11-21T03:38:51;12.20;;;6.60;;
36457;SDS011;22480;50.546;12.292;2023-11-21T03:41:17;11.68;;;7.45;;
36457;SDS011;22480;50.546;12.292;2023-11-21T03:43:43;15.80;;;6.82;;
36457;SDS011;22480;50.546;12.292;2023-11-21T03:46:12;11.50;;;6.85;;
36457;SDS011;22480;50.546;12.292;2023-11-21T03:48:38;12.35;;;7.30;;
36457;SDS011;22480;50.546;12.292;2023-11-21T03:51:04;12.38;;;6.57;;
36457;SDS011;22480;50.546;12.292;2023-11-21T03:53:33;9.98;;;6.93;;
36457;SDS011;22480;50.546;12.292;2023-11-21T03:56:02;9.30;;;6.07;;
36457;SDS011;22480;50.546;12.292;2023-11-21T03:58:29;13.57;;;8.00;;
36457;SDS011;22480;50.546;12.292;2023-11-21T04:00:54;10.20;;;6.95;;
36457;SDS011;22480;50.546;12.292;2023-11-21T04:03:20;10.13;;;6.95;;
36457;SDS011;22480;50.546;12.292;2023-11-21T04:05:46;15.02;;;8.40;;
36457;SDS011;22480;50.546;12.292;2023-11-21T04:08:12;12.20;;;7.22;;
36457;SDS011;22480;50.546;12.292;2023-11-21T04:10:38;10.60;;;6.82;;
36457;SDS011;22480;50.546;12.292;2023-11-21T04:13:04;12.65;;;7.55;;
36457;SDS011;22480;50.546;12.292;2023-11-21T04:15:32;15.85;;;8.98;;
36457;SDS011;22480;50.546;12.292;2023-11-21T04:17:57;15.93;;;9.02;;
36457;SDS011;22480;50.546;12.292;2023-11-21T04:20:23;21.63;;;10.88;;
36457;SDS011;22480;50.546;12.292;2023-11-21T04:22:49;17.02;;;10.98;;
36457;SDS011;22480;50.546;12.292;2023-11-21T04:25:15;19.52;;;11.80;;
36457;SDS011;22480;50.546;12.292;2023-11-21T04:27:42;18.40;;;11.65;;
36457;SDS011;22480;50.546;12.292;2023-11-21T04:30:10;27.50;;;15.82;;
36457;SDS011;22480;50.546;12.292;2023-11-21T04:32:36;40.22;;;23.27;;
36457;SDS011;22480;50.546;12.292;2023-11-21T04:35:02;60.00;;;33.25;;
36457;SDS011;22480;50.546;12.292;2023-11-21T04:37:29;34.25;;;19.20;;
36457;SDS011;22480;50.546;12.292;2023-11-21T04:39:55;29.98;;;16.50;;
36457;SDS011;22480;50.546;12.292;2023-11-21T04:42:20;48.10;;;23.88;;
36457;SDS011;22480;50.546;12.292;2023-11-21T04:44:47;24.08;;;13.13;;
36457;SDS011;22480;50.546;12.292;2023-11-21T04:47:13;17.20;;;10.10;;
36457;SDS011;22480;50.546;12.292;2023-11-21T04:49:41;20.67;;;9.25;;
36457;SDS011;22480;50.546;12.292;2023-11-21T04:52:08;12.38;;;8.30;;
36457;SDS011;22480;50.546;12.292;2023-11-21T04:54:35;14.00;;;8.23;;
36457;SDS011;22480;50.546;12.292;2023-11-21T04:57:01;15.25;;;8.85;;
36457;SDS011;22480;50.546;12.292;2023-11-21T04:59:27;13.85;;;8.40;;
36457;SDS011;22480;50.546;12.292;2023-11-21T05:01:53;19.80;;;10.45;;
36457;SDS011;22480;50.546;12.292;2023-11-21T05:04:19;17.98;;;9.65;;
36457;SDS011;22480;50.546;12.292;2023-11-21T05:06:47;14.02;;;8.82;;
36457;SDS011;22480;50.546;12.292;2023-11-21T05:09:13;16.20;;;8.85;;
36457;SDS011;22480;50.546;12.292;2023-11-21T05:11:39;16.98;;;9.85;;
36457;SDS011;22480;50.546;12.292;2023-11-21T05:14:06;16.63;;;8.60;;
36457;SDS011;22480;50.546;12.292;2023-11-21T05:16:31;14.38;;;8.85;;
36457;SDS011;22480;50.546;12.292;2023-11-21T05:18:57;15.82;;;9.52;;
36457;SDS011;22480;50.546;12.292;2023-11-21T05:21:25;19.67;;;11.32;;
36457;SDS011;22480;50.546;12.292;2023-11-21T05:23:56;21.75;;;11.07;;
36457;SDS011;22480;50.546;12.292;2023-11-21T05:26:22;19.77;;;11.60;;
36457;SDS011;22480;50.546;12.292;2023-11-21T05:28:48;21.40;;;11.38;;
36457;SDS011;22480;50.546;12.292;2023-11-21T05:31:13;17.33;;;10.13;;
36457;SDS011;22480;50.546;12.292;2023-11-21T05:33:40;19.08;;;11.13;;
36457;SDS011;22480;50.546;12.292;2023-11-21T05:36:06;17.55;;;10.77;;
36457;SDS011;22480;50.546;12.292;2023-11-21T05:38:33;18.23;;;11.40;;
36457;SDS011;22480;50.546;12.292;2023-11-21T05:41:00;21.70;;;12.07;;
36457;SDS011;22480;50.546;12.292;2023-11-21T05:43:26;18.60;;;11.10;;
36457;SDS011;22480;50.546;12.292;2023-11-21T05:45:54;17.15;;;10.63;;
36457;SDS011;22480;50.546;12.292;2023-11-21T05:48:20;20.50;;;10.63;;
36457;SDS011;22480;50.546;12.292;2023-11-21T05:50:46;18.50;;;11.27;;
36457;SDS011;22480;50.546;12.292;2023-11-21T05:53:13;18.35;;;10.57;;
36457;SDS011;22480;50.546;12.292;2023-11-21T05:55:41;17.58;;;10.73;;
36457;SDS011;22480;50.546;12.292;2023-11-21T05:58:07;23.80;;;11.88;;
36457;SDS011;22480;50.546;12.292;2023-11-21T06:00:33;17.73;;;9.32;;
36457;SDS011;22480;50.546;12.292;2023-11-21T06:02:59;17.15;;;10.27;;
36457;SDS011;22480;50.546;12.292;2023-11-21T06:05:25;14.93;;;7.78;;
36457;SDS011;22480;50.546;12.292;2023-11-21T06:07:55;13.65;;;7.38;;
36457;SDS011;22480;50.546;12.292;2023-11-21T06:10:23;11.82;;;6.63;;
36457;SDS011;22480;50.546;12.292;2023-11-21T06:12:50;12.90;;;6.15;;
36457;SDS011;22480;50.546;12.292;2023-11-21T06:15:16;11.32;;;7.65;;
36457;SDS011;22480;50.546;12.292;2023-11-21T06:17:44;19.60;;;9.95;;
36457;SDS011;22480;50.546;12.292;2023-11-21T06:20:14;17.23;;;10.23;;
36457;SDS011;22480;50.546;12.292;2023-11-21T06:22:43;14.90;;;9.38;;
36457;SDS011;22480;50.546;12.292;2023-11-21T06:25:10;13.98;;;8.63;;
36457;SDS011;22480;50.546;12.292;2023-11-21T06:27:41;17.48;;;9.57;;
36457;SDS011;22480;50.546;12.292;2023-11-21T06:30:09;16.00;;;10.10;;
36457;SDS011;22480;50.546;12.292;2023-11-21T06:32:36;18.88;;;11.27;;
36457;SDS011;22480;50.546;12.292;2023-11-21T06:35:03;21.50;;;12.32;;
36457;SDS011;22480;50.546;12.292;2023-11-21T06:37:30;24.13;;;13.45;;
36457;SDS011;22480;50.546;12.292;2023-11-21T06:39:57;22.48;;;14.93;;
36457;SDS011;22480;50.546;12.292;2023-11-21T06:42:23;24.20;;;13.43;;
36457;SDS011;22480;50.546;12.292;2023-11-21T06:44:50;20.58;;;12.43;;
36457;SDS011;22480;50.546;12.292;2023-11-21T06:47:22;21.50;;;12.35;;
36457;SDS011;22480;50.546;12.292;2023-11-21T06:49:52;23.87;;;13.23;;
36457;SDS011;22480;50.546;12.292;2023-11-21T06:52:18;22.05;;;12.07;;
36457;SDS011;22480;50.546;12.292;2023-11-21T06:54:44;27.02;;;13.63;;
36457;SDS011;22480;50.546;12.292;2023-11-21T06:57:11;28.73;;;15.02;;
36457;SDS011;22480;50.546;12.292;2023-11-21T06:59:37;24.05;;;12.55;;
36457;SDS011;22480;50.546;12.292;2023-11-21T07:02:03;20.27;;;10.73;;
36457;SDS011;22480;50.546;12.292;2023-11-21T07:04:32;24.05;;;11.82;;
36457;SDS011;22480;50.546;12.292;2023-11-21T07:06:58;23.55;;;14.20;;
36457;SDS011;22480;50.546;12.292;2023-11-21T07:09:24;30.55;;;13.98;;
36457;SDS011;22480;50.546;12.292;2023-11-21T07:11:51;31.38;;;15.65;;
36457;SDS011;22480;50.546;12.292;2023-11-21T07:14:17;33.88;;;15.18;;
36457;SDS011;22480;50.546;12.292;2023-11-21T07:16:45;29.80;;;16.13;;
36457;SDS011;22480;50.546;12.292;2023-11-21T07:19:11;27.38;;;13.65;;
36457;SDS011;22480;50.546;12.292;2023-11-21T07:21:37;30.40;;;15.70;;
36457;SDS011;22480;50.546;12.292;2023-11-21T07:24:05;22.65;;;11.25;;
36457;SDS011;22480;50.546;12.292;2023-11-21T07:26:31;27.55;;;12.93;;
36457;SDS011;22480;50.546;12.292;2023-11-21T07:28:58;33.88;;;15.05;;
36457;SDS011;22480;50.546;12.292;2023-11-21T07:31:25;24.60;;;13.40;;
36457;SDS011;22480;50.546;12.292;2023-11-21T07:33:51;25.67;;;12.55;;
36457;SDS011;22480;50.546;12.292;2023-11-21T07:36:18;25.95;;;12.05;;
36457;SDS011;22480;50.546;12.292;2023-11-21T07:38:46;29.48;;;12.05;;
36457;SDS011;22480;50.546;12.292;2023-11-21T07:41:13;24.70;;;11.25;;
36457;SDS011;22480;50.546;12.292;2023-11-21T07:43:41;22.48;;;11.38;;
36457;SDS011;22480;50.546;12.292;2023-11-21T07:46:10;23.95;;;10.95;;
36457;SDS011;22480;50.546;12.292;2023-11-21T07:48:40;18.67;;;10.10;;
36457;SDS011;22480;50.546;12.292;2023-11-21T07:51:07;30.45;;;16.30;;
36457;SDS011;22480;50.546;12.292;2023-11-21T07:53:34;28.98;;;13.32;;
36457;SDS011;22480;50.546;12.292;2023-11-21T07:56:03;32.85;;;14.30;;
36457;SDS011;22480;50.546;12.292;2023-11-21T07:58:30;22.52;;;10.60;;
36457;SDS011;22480;50.546;12.292;2023-11-21T08:00:58;20.58;;;10.45;;
36457;SDS011;22480;50.546;12.292;2023-11-21T08:03:24;19.48;;;9.95;;
36457;SDS011;22480;50.546;12.292;2023-11-21T08:05:52;14.98;;;7.68;;
36457;SDS011;22480;50.546;12.292;2023-11-21T08:08:18;15.60;;;8.38;;
36457;SDS011;22480;50.546;12.292;2023-11-21T08:10:44;12.15;;;6.53;;
36457;SDS011;22480;50.546;12.292;2023-11-21T08:13:24;11.38;;;6.57;;
36457;SDS011;22480;50.546;12.292;2023-11-21T08:15:53;13.18;;;6.80;;
36457;SDS011;22480;50.546;12.292;2023-11-21T08:18:19;9.63;;;6.22;;
36457;SDS011;22480;50.546;12.292;2023-11-21T08:20:45;10.45;;;5.70;;
36457;SDS011;22480;50.546;12.292;2023-11-21T08:23:13;8.75;;;5.60;;
36457;SDS011;22480;50.546;12.292;2023-11-21T08:25:45;9.03;;;6.03;;
36457;SDS011;22480;50.546;12.292;2023-11-21T08:28:12;11.80;;;5.97;;
36457;SDS011;22480;50.546;12.292;2023-11-21T08:30:39;7.43;;;6.18;;
36457;SDS011;22480;50.546;12.292;2023-11-21T08:33:06;12.00;;;6.60;;
36457;SDS011;22480;50.546;12.292;2023-11-21T08:35:33;10.90;;;6.50;;
36457;SDS011;22480;50.546;12.292;2023-11-21T08:38:00;10.27;;;6.05;;
36457;SDS011;22480;50.546;12.292;2023-11-21T08:40:25;13.52;;;7.38;;
36457;SDS011;22480;50.546;12.292;2023-11-21T08:42:51;15.20;;;7.70;;
36457;SDS011;22480;50.546;12.292;2023-11-21T08:45:18;15.02;;;7.97;;
36457;SDS011;22480;50.546;12.292;2023-11-21T08:47:45;13.55;;;7.05;;
36457;SDS011;22480;50.546;12.292;2023-11-21T08:50:11;14.80;;;6.93;;
36457;SDS011;22480;50.546;12.292;2023-11-21T08:52:37;12.60;;;6.90;;
36457;SDS011;22480;50.546;12.292;2023-11-21T08:55:07;16.50;;;7.85;;
36457;SDS011;22480;50.546;12.292;2023-11-21T08:57:36;13.23;;;6.82;;
36457;SDS011;22480;50.546;12.292;2023-11-21T09:00:03;18.40;;;7.60;;
36457;SDS011;22480;50.546;12.292;2023-11-21T09:02:32;15.18;;;7.03;;
36457;SDS011;22480;50.546;12.292;2023-11-21T09:05:02;14.70;;;7.18;;
36457;SDS011;22480;50.546;12.292;2023-11-21T09:07:29;13.60;;;6.38;;
36457;SDS011;22480;50.546;12.292;2023-11-21T09:09:55;10.85;;;6.30;;
36457;SDS011;22480;50.546;12.292;2023-11-21T09:12:21;10.70;;;6.18;;
36457;SDS011;22480;50.546;12.292;2023-11-21T09:14:47;17.55;;;6.72;;
36457;SDS011;22480;50.546;12.292;2023-11-21T09:17:15;10.55;;;7.57;;
36457;SDS011;22480;50.546;12.292;2023-11-21T09:19:40;13.18;;;6.45;;
36457;SDS011;22480;50.546;12.292;2023-11-21T09:22:07;16.55;;;6.28;;
36457;SDS011;22480;50.546;12.292;2023-11-21T09:24:33;14.13;;;5.77;;
36457;SDS011;22480;50.546;12.292;2023-11-21T09:26:59;14.02;;;6.93;;
36457;SDS011;22480;50.546;12.292;2023-11-21T09:29:25;14.60;;;6.95;;
36457;SDS011;22480;50.546;12.292;2023-11-21T09:31:54;11.48;;;6.95;;
36457;SDS011;22480;50.546;12.292;2023-11-21T09:34:22;13.57;;;7.53;;
36457;SDS011;22480;50.546;12.292;2023-11-21T09:36:47;13.55;;;7.32;;
36457;SDS011;22480;50.546;12.292;2023-11-21T09:39:13;16.17;;;8.18;;
36457;SDS011;22480;50.546;12.292;2023-11-21T09:41:49;17.95;;;9.27;;
36457;SDS011;22480;50.546;12.292;2023-11-21T09:44:22;18.35;;;9.15;;
36457;SDS011;22480;50.546;12.292;2023-11-21T09:47:14;15.85;;;8.38;;
36457;SDS011;22480;50.546;12.292;2023-11-21T09:49:42;18.80;;;9.38;;
36457;SDS011;22480;50.546;12.292;2023-11-21T09:52:17;20.10;;;9.15;;
36457;SDS011;22480;50.546;12.292;2023-11-21T09:54:54;20.52;;;9.57;;
36457;SDS011;22480;50.546;12.292;2023-11-21T09:57:23;20.25;;;10.25;;
36457;SDS011;22480;50.546;12.292;2023-11-21T09:59:53;19.13;;;9.48;;
36457;SDS011;22480;50.546;12.292;2023-11-21T10:02:27;13.63;;;8.48;;
36457;SDS011;22480;50.546;12.292;2023-11-21T10:04:55;13.32;;;7.60;;
36457;SDS011;22480;50.546;12.292;2023-11-21T10:07:21;10.63;;;7.40;;
36457;SDS011;22480;50.546;12.292;2023-11-21T10:09:48;12.85;;;7.00;;
36457;SDS011;22480;50.546;12.292;2023-11-21T10:12:16;10.80;;;5.82;;
36457;SDS011;22480;50.546;12.292;2023-11-21T10:14:42;12.40;;;7.75;;
36457;SDS011;22480;50.546;12.292;2023-11-21T10:17:12;9.75;;;6.82;;
36457;SDS011;22480;50.546;12.292;2023-11-21T10:19:41;9.95;;;7.03;;
36457;SDS011;22480;50.546;12.292;2023-11-21T10:22:08;11.73;;;7.10;;
36457;SDS011;22480;50.546;12.292;2023-11-21T10:24:34;11.40;;;7.05;;
36457;SDS011;22480;50.546;12.292;2023-11-21T10:27:02;10.82;;;6.57;;
36457;SDS011;22480;50.546;12.292;2023-11-21T10:29:29;13.48;;;6.50;;
36457;SDS011;22480;50.546;12.292;2023-11-21T10:31:55;8.85;;;6.53;;
36457;SDS011;22480;50.546;12.292;2023-11-21T10:34:23;9.13;;;7.32;;
36457;SDS011;22480;50.546;12.292;2023-11-21T10:36:49;7.53;;;6.10;;
36457;SDS011;22480;50.546;12.292;2023-11-21T10:39:21;12.25;;;6.53;;
36457;SDS011;22480;50.546;12.292;2023-11-21T10:41:52;8.93;;;5.28;;
36457;SDS011;22480;50.546;12.292;2023-11-21T10:44:20;9.57;;;5.82;;
36457;SDS011;22480;50.546;12.292;2023-11-21T10:46:51;6.82;;;4.93;;
36457;SDS011;22480;50.546;12.292;2023-11-21T10:49:20;7.40;;;4.60;;
36457;SDS011;22480;50.546;12.292;2023-11-21T10:51:50;9.38;;;4.65;;
36457;SDS011;22480;50.546;12.292;2023-11-21T10:54:21;10.27;;;5.18;;
36457;SDS011;22480;50.546;12.292;2023-11-21T10:56:53;9.88;;;5.82;;
36457;SDS011;22480;50.546;12.292;2023-11-21T10:59:22;9.25;;;5.05;;
36457;SDS011;22480;50.546;12.292;2023-11-21T11:01:50;10.60;;;5.72;;
36457;SDS011;22480;50.546;12.292;2023-11-21T11:04:18;11.55;;;5.35;;
36457;SDS011;22480;50.546;12.292;2023-11-21T11:06:45;8.43;;;5.72;;
36457;SDS011;22480;50.546;12.292;2023-11-21T11:09:19;6.15;;;4.85;;
36457;SDS011;22480;50.546;12.292;2023-11-21T11:11:46;6.97;;;4.68;;
36457;SDS011;22480;50.546;12.292;2023-11-21T11:14:12;7.68;;;5.50;;
36457;SDS011;22480;50.546;12.292;2023-11-21T11:16:42;5.93;;;4.57;;
36457;SDS011;22480;50.546;12.292;2023-11-21T11:19:10;5.30;;;4.50;;
36457;SDS011;22480;50.546;12.292;2023-11-21T11:27:27;6.60;;;5.20;;
36457;SDS011;22480;50.546;12.292;2023-11-21T11:37:49;11.13;;;6.75;;
36457;SDS011;22480;50.546;12.292;2023-11-21T11:40:15;11.73;;;7.10;;
36457;SDS011;22480;50.546;12.292;2023-11-21T11:42:55;9.73;;;7.65;;
36457;SDS011;22480;50.546;12.292;2023-11-21T11:45:23;14.18;;;9.30;;
36457;SDS011;22480;50.546;12.292;2023-11-21T11:47:57;19.60;;;11.50;;
36457;SDS011;22480;50.546;12.292;2023-11-21T11:50:23;24.77;;;11.35;;
36457;SDS011;22480;50.546;12.292;2023-11-21T11:52:50;15.63;;;10.85;;
36457;SDS011;22480;50.546;12.292;2023-11-21T11:55:22;15.85;;;10.30;;
36457;SDS011;22480;50.546;12.292;2023-11-21T11:57:51;17.88;;;12.20;;
36457;SDS011;22480;50.546;12.292;2023-11-21T12:00:50;20.90;;;12.60;;
36457;SDS011;22480;50.546;12.292;2023-11-21T12:03:13;25.25;;;12.77;;
36457;SDS011;22480;50.546;12.292;2023-11-21T12:05:39;27.23;;;14.13;;
36457;SDS011;22480;50.546;12.292;2023-11-21T12:08:07;73.38;;;18.27;;
36457;SDS011;22480;50.546;12.292;2023-11-21T12:10:35;25.67;;;14.38;;
36457;SDS011;22480;50.546;12.292;2023-11-21T12:15:35;25.27;;;14.98;;
36457;SDS011;22480;50.546;12.292;2023-11-21T12:18:01;30.15;;;16.77;;
36457;SDS011;22480;50.546;12.292;2023-11-21T12:20:27;32.42;;;16.13;;
36457;SDS011;22480;50.546;12.292;2023-11-21T12:22:54;25.98;;;15.15;;
36457;SDS011;22480;50.546;12.292;2023-11-21T12:28:00;26.08;;;14.75;;
36457;SDS011;22480;50.546;12.292;2023-11-21T12:30:32;34.15;;;16.45;;
36457;SDS011;22480;50.546;12.292;2023-11-21T12:33:03;34.15;;;18.33;;
36457;SDS011;22480;50.546;12.292;2023-11-21T12:35:33;36.67;;;17.23;;
36457;SDS011;22480;50.546;12.292;2023-11-21T12:38:00;34.88;;;16.15;;
36457;SDS011;22480;50.546;12.292;2023-11-21T12:40:30;52.13;;;19.10;;
36457;SDS011;22480;50.546;12.292;2023-11-21T12:42:56;42.00;;;18.20;;
36457;SDS011;22480;50.546;12.292;2023-11-21T12:47:53;64.68;;;22.65;;
36457;SDS011;22480;50.546;12.292;2023-11-21T12:50:26;50.92;;;20.08;;
36457;SDS011;22480;50.546;12.292;2023-11-21T12:52:59;48.03;;;19.27;;
36457;SDS011;22480;50.546;12.292;2023-11-21T12:55:34;36.55;;;18.52;;
36457;SDS011;22480;50.546;12.292;2023-11-21T12:58:04;40.70;;;17.35;;
36457;SDS011;22480;50.546;12.292;2023-11-21T13:03:08;33.92;;;16.42;;
36457;SDS011;22480;50.546;12.292;2023-11-21T13:05:36;35.42;;;18.05;;
36457;SDS011;22480;50.546;12.292;2023-11-21T13:08:07;27.58;;;16.40;;
36457;SDS011;22480;50.546;12.292;2023-11-21T13:10:35;32.60;;;16.85;;
36457;SDS011;22480;50.546;12.292;2023-11-21T13:13:05;36.42;;;18.05;;
36457;SDS011;22480;50.546;12.292;2023-11-21T13:15:33;45.47;;;16.80;;
36457;SDS011;22480;50.546;12.292;2023-11-21T13:18:01;43.22;;;17.20;;
36457;SDS011;22480;50.546;12.292;2023-11-21T13:20:28;45.70;;;16.58;;
36457;SDS011;22480;50.546;12.292;2023-11-21T13:22:55;71.43;;;18.05;;
36457;SDS011;22480;50.546;12.292;2023-11-21T13:25:26;108.20;;;20.35;;
36457;SDS011;22480;50.546;12.292;2023-11-21T13:27:53;44.28;;;16.08;;
36457;SDS011;22480;50.546;12.292;2023-11-21T13:32:58;63.53;;;16.95;;
36457;SDS011;22480;50.546;12.292;2023-11-21T13:35:31;50.30;;;16.65;;
36457;SDS011;22480;50.546;12.292;2023-11-21T13:38:06;36.90;;;14.82;;
36457;SDS011;22480;50.546;12.292;2023-11-21T13:40:37;28.58;;;13.90;;
36457;SDS011;22480;50.546;12.292;2023-11-21T13:43:11;34.08;;;13.88;;
36457;SDS011;22480;50.546;12.292;2023-11-21T13:45:39;36.78;;;15.07;;
36457;SDS011;22480;50.546;12.292;2023-11-21T13:48:06;35.72;;;14.70;;
36457;SDS011;22480;50.546;12.292;2023-11-21T13:50:45;30.65;;;13.48;;
36457;SDS011;22480;50.546;12.292;2023-11-21T13:53:20;29.65;;;14.32;;
36457;SDS011;22480;50.546;12.292;2023-11-21T13:55:49;28.30;;;14.32;;
36457;SDS011;22480;50.546;12.292;2023-11-21T13:58:16;18.42;;;10.15;;
36457;SDS011;22480;50.546;12.292;2023-11-21T14:00:50;17.02;;;10.00;;
36457;SDS011;22480;50.546;12.292;2023-11-21T14:03:22;13.38;;;8.18;;
36457;SDS011;22480;50.546;12.292;2023-11-21T14:05:57;10.40;;;6.78;;
36457;SDS011;22480;50.546;12.292;2023-11-21T14:08:25;10.30;;;5.13;;
36457;SDS011;22480;50.546;12.292;2023-11-21T14:10:54;4.43;;;2.80;;
36457;SDS011;22480;50.546;12.292;2023-11-21T14:13:24;2.03;;;1.67;;
36457;SDS011;22480;50.546;12.292;2023-11-21T14:15:51;3.00;;;1.58;;
36457;SDS011;22480;50.546;12.292;2023-11-21T14:18:24;1.67;;;1.13;;
36457;SDS011;22480;50.546;12.292;2023-11-21T14:21:03;0.85;;;0.80;;
36457;SDS011;22480;50.546;12.292;2023-11-21T14:23:31;2.63;;;1.50;;
36457;SDS011;22480;50.546;12.292;2023-11-21T14:25:58;2.10;;;1.27;;
36457;SDS011;22480;50.546;12.292;2023-11-21T14:28:26;2.42;;;1.40;;
36457;SDS011;22480;50.546;12.292;2023-11-21T14:30:52;1.67;;;1.40;;
36457;SDS011;22480;50.546;12.292;2023-11-21T14:33:18;2.35;;;1.52;;
36457;SDS011;22480;50.546;12.292;2023-11-21T14:35:43;3.55;;;1.70;;
36457;SDS011;22480;50.546;12.292;2023-11-21T14:38:09;4.28;;;2.50;;
36457;SDS011;22480;50.546;12.292;2023-11-21T14:40:36;3.92;;;3.08;;
36457;SDS011;22480;50.546;12.292;2023-11-21T14:43:02;6.75;;;3.67;;
36457;SDS011;22480;50.546;12.292;2023-11-21T14:45:31;9.18;;;4.65;;
36457;SDS011;22480;50.546;12.292;2023-11-21T14:47:58;10.15;;;5.60;;
36457;SDS011;22480;50.546;12.292;2023-11-21T14:50:30;14.55;;;7.40;;